createdAt,value
2022-10-17T00:01:33.060Z,99.90
2022-10-17T00:04:18.592Z,99.90
2022-10-17T00:07:04.100Z,99.90
2022-10-17T00:09:50.402Z,99.90
2022-10-17T00:12:36.256Z,99.90
2022-10-17T00:15:22.299Z,99.90
2022-10-17T00:18:08.077Z,99.90
2022-10-17T00:20:54.482Z,99.90
2022-10-17T00:23:40.389Z,99.90
2022-10-17T00:26:26.239Z,99.90
2022-10-17T00:29:11.934Z,99.90
2022-10-17T00:31:58.036Z,99.90
2022-10-17T00:34:44.129Z,99.90
2022-10-17T00:37:31.727Z,99.90
2022-10-17T00:40:17.912Z,99.90
2022-10-17T00:43:15.331Z,99.90
2022-10-17T00:46:00.670Z,99.90
2022-10-17T00:48:49.174Z,99.90
2022-10-17T00:51:43.146Z,99.90
2022-10-17T00:54:35.475Z,99.90
2022-10-17T00:57:21.260Z,99.90
2022-10-17T01:00:09.900Z,99.90
2022-10-17T01:02:55.530Z,99.90
2022-10-17T01:05:43.112Z,99.90
2022-10-17T01:08:29.051Z,99.90
2022-10-17T01:11:20.570Z,99.90
2022-10-17T01:14:27.625Z,99.90
2022-10-17T01:17:33.258Z,99.90
2022-10-17T01:20:27.755Z,99.90
2022-10-17T01:23:25.778Z,99.90
2022-10-17T01:26:27.500Z,99.90
2022-10-17T01:29:27.458Z,99.90
2022-10-17T01:32:37.976Z,99.90
2022-10-17T01:35:37.283Z,99.90
2022-10-17T01:38:38.213Z,99.90
2022-10-17T01:41:27.121Z,99.90
2022-10-17T01:44:24.002Z,99.90
2022-10-17T01:47:15.085Z,99.90
2022-10-17T01:50:07.114Z,99.90
2022-10-17T01:52:57.013Z,99.90
2022-10-17T01:55:46.255Z,99.90
2022-10-17T01:58:36.267Z,99.90
2022-10-17T02:01:22.615Z,99.90
2022-10-17T02:04:11.801Z,99.90
2022-10-17T02:06:57.707Z,99.90
2022-10-17T02:09:43.946Z,99.90
2022-10-17T02:12:32.394Z,99.90
2022-10-17T02:15:43.218Z,99.90
2022-10-17T02:18:47.682Z,99.90
2022-10-17T02:21:53.682Z,99.90
2022-10-17T02:25:07.614Z,99.90
2022-10-17T02:28:02.842Z,99.90
2022-10-17T02:31:03.249Z,99.90
2022-10-17T02:33:56.439Z,99.90
2022-10-17T02:36:47.764Z,99.90
2022-10-17T02:39:36.264Z,99.90
2022-10-17T02:42:23.514Z,99.90
2022-10-17T02:45:12.235Z,99.90
2022-10-17T02:48:19.305Z,99.90
2022-10-17T02:51:09.864Z,99.90
2022-10-17T02:54:14.768Z,99.90
2022-10-17T02:57:15.670Z,99.90
2022-10-17T03:00:04.405Z,99.90
2022-10-17T03:02:52.264Z,99.90
2022-10-17T03:05:37.976Z,99.90
2022-10-17T03:08:25.345Z,99.90
2022-10-17T03:11:10.950Z,99.90
2022-10-17T03:13:56.460Z,99.90
2022-10-17T03:16:42.504Z,99.90
2022-10-17T03:19:31.483Z,99.90
2022-10-17T03:22:17.971Z,99.90
2022-10-17T03:25:05.699Z,99.90
2022-10-17T03:27:54.427Z,99.90
2022-10-17T03:30:40.931Z,99.90
2022-10-17T03:33:27.489Z,99.90
2022-10-17T03:36:16.367Z,99.90
2022-10-17T03:39:04.206Z,99.90
2022-10-17T03:41:50.059Z,99.90
2022-10-17T03:44:35.713Z,99.90
2022-10-17T03:47:21.582Z,99.90
2022-10-17T03:50:08.734Z,99.90
2022-10-17T03:52:56.060Z,99.90
2022-10-17T03:55:41.684Z,99.90
2022-10-17T03:58:29.406Z,99.90
2022-10-17T04:01:18.351Z,99.90
2022-10-17T04:04:05.508Z,99.90
2022-10-17T04:06:54.315Z,99.90
2022-10-17T04:09:40.411Z,99.90
2022-10-17T04:12:30.704Z,99.90
2022-10-17T04:15:17.158Z,99.90
2022-10-17T04:20:50.467Z,99.90
2022-10-17T04:23:36.604Z,99.90
2022-10-17T04:26:32.446Z,99.90
2022-10-17T04:29:19.392Z,99.90
2022-10-17T04:32:08.639Z,99.90
2022-10-17T04:35:02.084Z,99.90
2022-10-17T04:37:47.451Z,99.90
2022-10-17T04:40:37.001Z,99.90
2022-10-17T04:43:22.713Z,99.90
2022-10-17T04:46:10.815Z,99.90
2022-10-17T04:48:58.068Z,99.90
2022-10-17T04:51:44.061Z,99.90
2022-10-17T04:54:50.107Z,99.90
2022-10-17T04:57:36.632Z,99.90
2022-10-17T05:00:36.045Z,99.90
2022-10-17T05:03:30.812Z,99.90
2022-10-17T05:06:22.399Z,99.90
2022-10-17T05:09:25.466Z,99.90
2022-10-17T05:12:10.907Z,99.90
2022-10-17T05:14:59.987Z,99.90
2022-10-17T05:17:47.838Z,99.90
2022-10-17T05:20:34.310Z,99.90
2022-10-17T05:23:20.659Z,99.90
2022-10-17T05:26:06.622Z,99.90
2022-10-17T05:28:53.167Z,99.90
2022-10-17T05:31:41.998Z,99.90
2022-10-17T05:34:27.484Z,99.90
2022-10-17T05:37:13.236Z,99.90
2022-10-17T05:40:01.790Z,99.90
2022-10-17T05:42:49.187Z,99.90
2022-10-17T05:45:37.275Z,99.90
2022-10-17T05:48:23.929Z,99.90
2022-10-17T05:51:11.594Z,99.90
2022-10-17T05:53:59.236Z,99.90
2022-10-17T05:56:51.127Z,99.90
2022-10-17T05:59:36.962Z,99.90
2022-10-17T06:02:29.583Z,99.90
2022-10-17T06:05:17.426Z,99.90
2022-10-17T06:08:02.928Z,99.90
2022-10-17T06:10:52.926Z,99.90
2022-10-17T06:13:39.582Z,99.90
2022-10-17T06:16:31.669Z,99.90
2022-10-17T06:19:18.111Z,99.90
2022-10-17T06:22:05.310Z,99.90
2022-10-17T06:24:53.057Z,99.90
2022-10-17T06:27:38.521Z,99.90
2022-10-17T06:30:24.247Z,99.90
2022-10-17T06:33:10.366Z,99.90
2022-10-17T06:35:56.710Z,99.90
2022-10-17T06:38:43.876Z,99.90
2022-10-17T06:41:39.618Z,99.90
2022-10-17T06:44:30.677Z,99.90
2022-10-17T06:47:35.717Z,99.90
2022-10-17T06:50:29.669Z,99.90
2022-10-17T06:53:40.262Z,99.90
2022-10-17T06:56:43.811Z,99.90
2022-10-17T06:59:48.523Z,99.90
2022-10-17T07:02:38.729Z,99.90
2022-10-17T07:05:24.127Z,99.90
2022-10-17T07:08:09.662Z,99.90
2022-10-17T07:10:57.694Z,99.90
2022-10-17T07:13:44.071Z,99.90
2022-10-17T07:16:30.162Z,99.90
2022-10-17T07:19:26.961Z,99.90
2022-10-17T07:22:13.652Z,99.90
2022-10-17T07:25:02.444Z,99.90
2022-10-17T07:27:53.429Z,99.90
2022-10-17T07:30:40.546Z,99.90
2022-10-17T07:33:30.104Z,99.90
2022-10-17T07:36:16.389Z,99.90
2022-10-17T07:39:02.055Z,99.90
2022-10-17T07:41:50.771Z,99.90
2022-10-17T07:44:37.344Z,99.90
2022-10-17T07:47:23.964Z,99.90
2022-10-17T07:50:12.011Z,99.90
2022-10-17T07:52:58.664Z,99.90
2022-10-17T07:55:46.446Z,99.90
2022-10-17T07:58:32.741Z,99.90
2022-10-17T08:01:19.092Z,99.90
2022-10-17T08:04:05.016Z,99.90
2022-10-17T08:06:53.380Z,99.90
2022-10-17T08:09:43.254Z,99.90
2022-10-17T08:12:32.658Z,99.90
2022-10-17T08:15:18.593Z,99.90
2022-10-17T08:18:03.976Z,99.90
2022-10-17T08:20:49.432Z,99.90
2022-10-17T08:23:35.802Z,99.90
2022-10-17T08:26:21.511Z,99.90
2022-10-17T08:29:13.558Z,99.90
2022-10-17T08:32:01.215Z,99.90
2022-10-17T08:34:47.285Z,99.90
2022-10-17T08:37:33.333Z,99.90
2022-10-17T08:40:26.118Z,99.90
2022-10-17T08:43:17.489Z,99.90
2022-10-17T08:46:06.641Z,99.90
2022-10-17T08:48:52.538Z,99.90
2022-10-17T08:51:52.878Z,99.90
2022-10-17T08:54:43.348Z,99.90
2022-10-17T08:57:29.455Z,99.90
2022-10-17T09:00:20.691Z,99.90
2022-10-17T09:03:38.607Z,99.90
2022-10-17T09:06:50.597Z,99.90
2022-10-17T09:10:07.309Z,99.90
2022-10-17T09:13:06.915Z,99.90
2022-10-17T09:16:11.705Z,99.90
2022-10-17T09:19:01.630Z,99.90
2022-10-17T09:21:54.080Z,99.90
2022-10-17T09:24:48.402Z,99.90
2022-10-17T09:27:56.529Z,99.90
2022-10-17T09:31:00.742Z,99.90
2022-10-17T09:33:54.375Z,99.90
2022-10-17T09:36:40.956Z,99.90
2022-10-17T09:39:31.722Z,99.90
2022-10-17T09:42:24.136Z,99.90
2022-10-17T09:45:24.785Z,99.20
2022-10-17T09:48:35.467Z,99.40
2022-10-17T09:51:25.929Z,98.90
2022-10-17T09:54:25.590Z,98.60
2022-10-17T09:57:13.341Z,97.60
2022-10-17T10:00:05.421Z,96.50
2022-10-17T10:03:22.549Z,97.00
2022-10-17T10:06:20.239Z,97.20
2022-10-17T10:09:18.831Z,96.50
2022-10-17T10:12:15.912Z,96.40
2022-10-17T10:15:02.202Z,96.90
2022-10-17T10:17:48.060Z,95.90
2022-10-17T10:20:37.673Z,96.30
2022-10-17T10:23:24.328Z,96.20
2022-10-17T10:26:29.811Z,96.20
2022-10-17T10:29:21.540Z,96.70
2022-10-17T10:32:29.924Z,95.10
2022-10-17T10:35:35.520Z,93.40
2022-10-17T10:38:21.360Z,91.60
2022-10-17T10:41:09.434Z,91.90
2022-10-17T10:43:56.103Z,91.20
2022-10-17T10:46:41.982Z,90.40
2022-10-17T10:49:31.936Z,91.20
2022-10-17T10:52:43.231Z,89.30
2022-10-17T10:55:36.568Z,88.40
2022-10-17T10:59:04.995Z,89.20
2022-10-17T11:02:11.777Z,88.20
2022-10-17T11:05:02.022Z,87.20
2022-10-17T11:08:00.003Z,81.50
2022-10-17T11:10:57.658Z,83.20
2022-10-17T11:14:08.075Z,82.70
2022-10-17T11:16:58.733Z,83.40
2022-10-17T11:19:56.783Z,81.30
2022-10-17T11:23:25.846Z,75.10
2022-10-17T11:26:26.951Z,78.30
2022-10-17T11:29:13.772Z,76.60
2022-10-17T11:32:05.845Z,72.60
2022-10-17T11:35:01.007Z,66.90
2022-10-17T11:38:06.646Z,60.60
2022-10-17T11:40:58.592Z,58.00
2022-10-17T11:44:02.481Z,55.70
2022-10-17T11:46:57.014Z,52.50
2022-10-17T11:49:50.131Z,54.50
2022-10-17T11:52:56.454Z,48.60
2022-10-17T11:55:43.669Z,43.70
2022-10-17T11:58:50.491Z,38.30
2022-10-17T12:01:54.639Z,40.80
2022-10-17T12:04:56.885Z,34.10
2022-10-17T12:08:08.419Z,33.90
2022-10-17T12:11:19.530Z,30.80
2022-10-17T12:14:35.304Z,32.00
2022-10-17T12:17:38.800Z,30.80
2022-10-17T12:20:27.944Z,30.00
2022-10-17T12:23:13.398Z,30.70
2022-10-17T12:26:10.324Z,31.20
2022-10-17T12:28:57.335Z,29.20
2022-10-17T12:31:43.832Z,30.10
2022-10-17T12:34:29.624Z,30.00
2022-10-17T12:37:15.346Z,29.70
2022-10-17T12:40:01.039Z,30.00
2022-10-17T12:42:49.766Z,31.90
2022-10-17T12:45:50.218Z,32.60
2022-10-17T12:48:41.678Z,30.00
2022-10-17T12:51:37.905Z,31.20
2022-10-17T12:54:24.008Z,32.60
2022-10-17T12:57:30.956Z,32.20
2022-10-17T13:01:23.771Z,33.60
2022-10-17T13:04:05.751Z,31.10
2022-10-17T13:06:59.209Z,31.90
2022-10-17T13:09:45.314Z,32.20
2022-10-17T13:12:40.293Z,33.00
2022-10-17T13:15:27.839Z,35.30
2022-10-17T13:18:19.872Z,36.40
2022-10-17T13:21:15.296Z,36.50
2022-10-17T13:24:01.143Z,35.10
2022-10-17T13:26:47.470Z,35.60
2022-10-17T13:29:33.630Z,32.70
2022-10-17T13:32:19.144Z,32.90
2022-10-17T13:35:07.289Z,33.70
2022-10-17T13:37:54.218Z,34.40
2022-10-17T13:40:50.622Z,35.30
2022-10-17T13:43:36.492Z,35.40
2022-10-17T13:46:38.477Z,34.00
2022-10-17T13:49:37.154Z,34.70
2022-10-17T13:52:27.084Z,33.10
2022-10-17T13:55:17.918Z,34.20
2022-10-17T13:58:16.510Z,33.20
2022-10-17T14:01:02.646Z,35.10
2022-10-17T14:03:54.101Z,34.70
2022-10-17T14:06:49.856Z,35.20
2022-10-17T14:09:36.813Z,35.70
2022-10-17T14:12:22.900Z,36.30
2022-10-17T14:15:13.895Z,35.20
2022-10-17T14:18:07.710Z,37.70
2022-10-17T14:24:22.468Z,36.90
2022-10-17T14:27:35.611Z,38.50
2022-10-17T14:30:51.821Z,37.80
2022-10-17T14:33:33.892Z,37.90
2022-10-17T14:36:30.918Z,37.90
2022-10-17T14:39:22.171Z,36.90
2022-10-17T14:42:22.645Z,36.90
2022-10-17T14:45:14.104Z,39.50
2022-10-17T14:48:12.565Z,41.70
2022-10-17T14:51:11.980Z,44.00
2022-10-17T14:54:05.631Z,45.00
2022-10-17T14:56:53.478Z,46.20
2022-10-17T14:59:53.919Z,47.10
2022-10-17T15:02:40.459Z,47.00
2022-10-17T15:05:26.069Z,47.80
2022-10-17T15:08:19.984Z,47.80
2022-10-17T15:11:05.623Z,48.50
2022-10-17T15:13:51.692Z,49.00
2022-10-17T15:16:39.395Z,49.50
2022-10-17T15:19:25.060Z,50.00
2022-10-17T15:22:11.848Z,50.50
2022-10-17T15:24:57.683Z,50.80
2022-10-17T15:27:43.080Z,50.80
2022-10-17T15:30:32.919Z,51.20
2022-10-17T15:33:18.182Z,51.60
2022-10-17T15:36:04.064Z,51.50
2022-10-17T15:38:52.314Z,51.80
2022-10-17T15:41:37.794Z,51.90
2022-10-17T15:44:23.342Z,52.10
2022-10-17T15:47:19.511Z,52.50
2022-10-17T15:50:08.785Z,52.50
2022-10-17T15:52:54.489Z,52.60
2022-10-17T15:55:40.569Z,53.50
2022-10-17T15:58:28.344Z,54.00
2022-10-17T16:01:43.604Z,54.90
2022-10-17T16:04:30.594Z,54.90
2022-10-17T16:07:17.430Z,58.30
2022-10-17T16:10:03.582Z,58.80
2022-10-17T16:12:50.288Z,58.80
2022-10-17T16:15:36.326Z,60.00
2022-10-17T16:18:21.786Z,60.20
2022-10-17T16:21:13.892Z,60.30
2022-10-17T16:24:00.618Z,61.80
2022-10-17T16:26:46.180Z,62.50
2022-10-17T16:29:31.979Z,65.00
2022-10-17T16:32:17.313Z,65.10
2022-10-17T16:35:04.111Z,66.60
2022-10-17T16:37:50.288Z,67.90
2022-10-17T16:40:38.946Z,68.90
2022-10-17T16:43:27.299Z,70.40
2022-10-17T16:46:17.163Z,71.40
2022-10-17T16:49:05.046Z,72.50
2022-10-17T16:51:50.879Z,73.80
2022-10-17T16:54:37.115Z,74.30
2022-10-17T16:57:22.616Z,76.00
2022-10-17T17:00:08.983Z,76.70
2022-10-17T17:02:55.035Z,77.60
2022-10-17T17:05:40.525Z,77.90
2022-10-17T17:08:27.210Z,78.20
2022-10-17T17:11:17.282Z,78.50
2022-10-17T17:14:03.692Z,78.30
2022-10-17T17:16:49.397Z,79.50
2022-10-17T17:19:34.692Z,80.30
2022-10-17T17:22:20.243Z,80.70
2022-10-17T17:25:08.122Z,81.80
2022-10-17T17:27:53.851Z,82.60
2022-10-17T17:30:39.417Z,84.00
2022-10-17T17:33:26.267Z,84.40
2022-10-17T17:36:14.904Z,85.00
2022-10-17T17:39:02.574Z,86.10
2022-10-17T17:41:48.298Z,86.40
2022-10-17T17:44:34.008Z,87.00
2022-10-17T17:47:20.101Z,87.60
2022-10-17T17:50:06.313Z,88.70
2022-10-17T17:52:54.813Z,89.90
2022-10-17T17:55:41.211Z,90.20
2022-10-17T17:58:26.729Z,90.60
2022-10-17T18:01:22.178Z,90.70
2022-10-17T18:04:09.022Z,91.20
2022-10-17T18:06:57.363Z,91.30
2022-10-17T18:09:43.003Z,92.00
2022-10-17T18:12:30.272Z,92.50
2022-10-17T18:15:16.881Z,93.20
2022-10-17T18:18:02.606Z,93.50
2022-10-17T18:20:52.903Z,94.30
2022-10-17T18:23:43.082Z,94.70
2022-10-17T18:26:28.755Z,95.20
2022-10-17T18:29:16.337Z,95.30
2022-10-17T18:32:01.712Z,95.00
2022-10-17T18:34:47.403Z,95.40
2022-10-17T18:37:33.408Z,95.40
2022-10-17T18:40:18.908Z,95.70
2022-10-17T18:43:04.523Z,95.70
2022-10-17T18:45:50.067Z,95.60
2022-10-17T18:48:38.389Z,95.30
2022-10-17T18:51:25.847Z,95.60
2022-10-17T18:54:17.320Z,96.60
2022-10-17T18:57:02.690Z,97.10
2022-10-17T18:59:48.259Z,97.70
2022-10-17T19:02:35.676Z,97.70
2022-10-17T19:05:23.702Z,97.30
2022-10-17T19:08:10.852Z,97.20
2022-10-17T19:10:56.415Z,97.30
2022-10-17T19:13:43.303Z,97.00
2022-10-17T19:16:35.211Z,96.70
2022-10-17T19:19:24.195Z,96.80
2022-10-17T19:22:10.501Z,96.80
2022-10-17T19:24:56.830Z,97.10
2022-10-17T19:27:42.715Z,97.00
2022-10-17T19:30:28.732Z,97.00
2022-10-17T19:33:14.643Z,97.20
2022-10-17T19:36:11.054Z,97.10
2022-10-17T19:38:59.014Z,97.30
2022-10-17T19:41:48.310Z,97.20
2022-10-17T19:44:34.336Z,97.20
2022-10-17T19:47:21.268Z,97.70
2022-10-17T19:50:07.739Z,97.80
2022-10-17T19:52:53.266Z,98.20
2022-10-17T19:55:39.319Z,97.80
2022-10-17T19:58:26.225Z,97.80
2022-10-17T20:01:19.479Z,98.60
2022-10-17T20:04:08.595Z,99.30
2022-10-17T20:06:59.648Z,99.20
2022-10-17T20:09:45.348Z,99.20
2022-10-17T20:12:31.231Z,99.10
2022-10-17T20:15:19.088Z,99.00
2022-10-17T20:18:07.100Z,98.70
2022-10-17T20:20:53.081Z,98.60
2022-10-17T20:23:40.106Z,99.20
2022-10-17T20:26:42.614Z,99.80
2022-10-17T20:29:29.674Z,99.90
2022-10-17T20:32:16.576Z,99.90
2022-10-17T20:35:02.296Z,99.60
2022-10-17T20:37:47.911Z,99.80
2022-10-17T20:40:35.408Z,99.50
2022-10-17T20:43:21.538Z,99.90
2022-10-17T20:46:29.487Z,99.80
2022-10-17T20:49:22.324Z,99.70
2022-10-17T20:52:08.012Z,99.90
2022-10-17T20:54:53.596Z,99.90
2022-10-17T20:57:39.103Z,99.90
2022-10-17T21:00:26.152Z,99.90
2022-10-17T21:03:11.753Z,99.90
2022-10-17T21:05:57.593Z,99.90
2022-10-17T21:08:45.170Z,99.90
2022-10-17T21:11:31.440Z,99.90
2022-10-17T21:14:17.039Z,99.90
2022-10-17T21:17:05.258Z,99.90
2022-10-17T21:19:52.054Z,99.90
2022-10-17T21:22:38.454Z,99.90
2022-10-17T21:25:24.028Z,99.90
2022-10-17T21:28:09.611Z,99.90
2022-10-17T21:30:55.190Z,99.90
2022-10-17T21:33:41.675Z,99.90
2022-10-17T21:36:28.032Z,99.90
2022-10-17T21:39:15.043Z,99.90
2022-10-17T21:42:00.937Z,99.90
2022-10-17T21:44:46.933Z,99.90
2022-10-17T21:47:38.553Z,99.90
2022-10-17T21:50:24.203Z,99.90
2022-10-17T21:53:09.714Z,99.90
2022-10-17T21:55:55.367Z,99.90
2022-10-17T21:58:41.169Z,99.90
2022-10-17T22:01:30.580Z,99.90
2022-10-17T22:04:18.424Z,99.90
2022-10-17T22:07:04.050Z,99.90
2022-10-17T22:09:49.465Z,99.90
2022-10-17T22:12:35.030Z,99.90
2022-10-17T22:15:22.082Z,99.90
2022-10-17T22:18:07.999Z,99.90
2022-10-17T22:20:54.101Z,99.90
2022-10-17T22:23:40.794Z,99.90
2022-10-17T22:26:29.475Z,99.90
2022-10-17T22:29:16.195Z,99.90
2022-10-17T22:32:02.107Z,99.90
2022-10-17T22:34:48.407Z,99.90
2022-10-17T22:37:34.138Z,99.90
2022-10-17T22:40:20.484Z,99.90
2022-10-17T22:43:06.259Z,99.90
2022-10-17T22:46:00.248Z,99.90
2022-10-17T22:48:45.736Z,99.90
2022-10-17T22:51:31.541Z,99.90
2022-10-17T22:54:17.292Z,99.90
2022-10-17T22:57:02.738Z,99.90
2022-10-17T22:59:48.152Z,99.90
2022-10-17T23:02:33.890Z,99.90
2022-10-17T23:05:19.685Z,99.90
2022-10-17T23:08:05.375Z,99.90
2022-10-17T23:10:51.269Z,99.90
2022-10-17T23:13:37.711Z,99.90
2022-10-17T23:16:22.980Z,99.90
2022-10-17T23:19:09.200Z,99.90
2022-10-17T23:21:54.627Z,99.90
2022-10-17T23:24:40.088Z,99.90
2022-10-17T23:27:25.412Z,99.90
2022-10-17T23:30:11.912Z,99.90
2022-10-17T23:32:57.802Z,99.90
2022-10-17T23:35:43.275Z,99.90
2022-10-17T23:38:28.663Z,99.90
2022-10-17T23:41:15.544Z,99.90
2022-10-17T23:44:00.871Z,99.90
2022-10-17T23:46:46.569Z,99.90
2022-10-17T23:49:32.624Z,99.90
2022-10-17T23:52:18.563Z,99.90
2022-10-17T23:55:04.700Z,99.90
2022-10-17T23:57:51.085Z,99.90
